To NAV CANADA Home Page Login to a new session Search on AWWS site Feedback and Comments Disclaimer Vers la page française équivalente Tips FAQ What's new on the site To the Forecasts and Observations / NOTAM section To "File a Flight Plan" website Publications and other links Update of the User's profile FIC Telephone Numbers My Weather Data Folder Route Weather Data Regional Weather Data Local Weather Data To the Forecasts and Observations / NOTAM section
Request Generated 02/11/2016 at 23:26:59 UTC . Weather information available at that time is displayed.

METAR/TAF

TORONTO/BILLY BISHOP TORONTO CITY AIRPORT/ON    (show WxCam)

METAR CYTZ 112300Z AUTO 30015G22KT 9SM CLR M11/M20 A3019 RMK SLP230=
METAR CYTZ 112200Z AUTO 30013G21KT 9SM CLR M10/M20 A3016 RMK SLP222=
METAR CYTZ 112100Z AUTO 27017KT 9SM FEW047 M09/M18 A3013 RMK SLP211=

TAF CYTZ 111938Z 1120/1220 31015KT P6SM BKN040 TEMPO 1120/1122 P6SM
-SHSN
FM112200 29015KT P6SM SCT040
BECMG 1200/1202 26010KT
FM121000 25012KT P6SM SCT030 BKN080
BECMG 1214/1216 25015G25KT
FM121800 25015G25KT 6SM -SHSN BKN025
RMK FCST BASED ON AUTO OBS. NXT FCST BY 120200Z=
Your time UTC time
Weather data provided by Environment Canada and NAV CANADA